Barbados Meteorological Services
Auto gathered TAF list
Powered by Apparatus software
For Flight BW216
Contact Number 1-(246)-535-0021/2/3/4/5/6
WEB: http://www.barbadosweather.org

**********************************************

2023/01/29 12:16
TAF TVSA 291100Z 2912/3012 06007KT 9999 SCT018 PROB30
TEMPO 2918/2921 BKN015


**********************************************
2023/01/29 12:36
TAF TTPP 291000Z 2912/3012 10010KT 9999 FEW018 BKN038
TEMPO 2912/2918 5000 SHRA SCT016 BKN036
BECMG 2923/3001 00000KT FEW016


**********************************************
2023/01/29 12:36
TAF TTCP 291000Z 2912/3012 10012KT 9999 FEW016 BKN038
TEMPO 2912/2916 5000 SHRA SCT016 BKN036
BECMG 2923/3001 07005KT FEW016


**********************************************
2023/01/29 12:09
TAF TNCM 291000Z 2912/3012 05014KT 9999 SCT018 PROB40
TEMPO 2914/3012 04014G25KT 5000 SHRA BKN016 SCT035


**********************************************
2023/01/29 12:10
TAF TLPL 291100Z 2912/3012 06015KT 9999 SCT024
TEMPO 2912/3018 SHRA BKN015 BKN040


**********************************************
2023/01/29 12:06
TAF TAF TLPC 291100Z 2912/3012 07009KT 9999 SCT024
TEMPO 2912/3018 SHRA BKN015 BKN040


**********************************************
2023/01/29 12:42
TAF TJSJ 291139Z 2912/3012 08009KT P6SM VCSH SCT030 BKN060
FM291300 06017G25KT P6SM VCSH SCT030 SCT060
FM292300 07015KT P6SM -RA SCT025 BKN050


**********************************************
2023/01/29 12:52
TAF TGPY 291000Z 2912/3012 09014KT 9999 FEW020
BECMG 2922/2924 FEW019 SCT040


**********************************************
2023/01/28 22:58
TAF TFFR 282253Z 2822/2918 CNL


**********************************************
2023/01/28 22:58
TAF TFFF 282252Z 2822/2918 CNL


**********************************************
2023/01/29 12:16
TAF TDPD 291100Z 2912/3012 10008KT 9999 SCT018 PROB40
TEMPO 2912/2915 BKN015 BKN036


**********************************************
2023/01/29 12:16
TAF TBPB 291100Z 2912/3012 06010KT 9999 SCT018 PROB30
TEMPO 2918/2921 BKN015


**********************************************
2023/01/29 12:03
TAF TAF TAPA 291100Z 2912/3012 07012KT 9999 SCT019 SCT038 PROB40
TEMPO 2912/3006 SHRA BKN014


**********************************************
2023/01/29 12:59
TAF SYCJ 291100Z 2912/3012 04010KT 9999 SCT020 SCT039
BECMG 2923/3001 03004KT 9999 FEW017


**********************************************
2023/01/29 12:03
TAF SVMI 291000Z 2912/3012 00000KT 9999 FEW016 TX32/2918Z TN21/3007Z
BECMG 2916/2920 09008KT SCT016


**********************************************
2023/01/28 22:58
TAF SOCA 282253Z 2822/2918 CNL


**********************************************
2023/01/29 11:32
TAF SMJP 291000Z 2911/3011 04006KT 9999 SCT020 TX29/2916Z TN20/3008Z
TEMPO 2916/2920 5000 SHRA FEW015CB SCT025 PROB40 3007/3010 VRB01KT 2000 BR SCT008


**********************************************
2023/01/29 12:16
TAF MYNN 290930Z 2912/3012 09012KT 9999 VCSH SCT022 BKN060 PROB30
TEMPO 2912/2915 9000 SHRA BKN020


**********************************************
2023/01/29 12:18
TAF MKJP 291115Z 2912/3012 32005KT 9999 SCT022
BECMG 2914/2916 17015KT SCT020 SCT034
BECMG 3004/3006 32005KT


**********************************************